sensor_id;sensor_type;location;lat;lon;timestamp;pressure;altitude;pressure_sealevel;temperature
15680;BMP180;15488;48.114;11.532;2023-09-08T00:02:27;95682.00;;;26.00
15680;BMP180;15488;48.114;11.532;2023-09-08T00:04:55;95676.00;;;26.00
15680;BMP180;15488;48.114;11.532;2023-09-08T00:07:22;95678.00;;;26.00
15680;BMP180;15488;48.114;11.532;2023-09-08T00:09:50;95677.00;;;25.90
15680;BMP180;15488;48.114;11.532;2023-09-08T00:12:19;95683.00;;;25.90
15680;BMP180;15488;48.114;11.532;2023-09-08T00:14:49;95668.00;;;25.90
15680;BMP180;15488;48.114;11.532;2023-09-08T00:17:16;95678.00;;;25.90
15680;BMP180;15488;48.114;11.532;2023-09-08T00:19:44;95681.00;;;25.90
15680;BMP180;15488;48.114;11.532;2023-09-08T00:22:11;95670.00;;;25.80
15680;BMP180;15488;48.114;11.532;2023-09-08T00:24:39;95671.00;;;25.80
15680;BMP180;15488;48.114;11.532;2023-09-08T00:27:06;95674.00;;;25.80
15680;BMP180;15488;48.114;11.532;2023-09-08T00:29:37;95671.00;;;25.80
15680;BMP180;15488;48.114;11.532;2023-09-08T00:32:04;95672.00;;;25.80
15680;BMP180;15488;48.114;11.532;2023-09-08T00:34:32;95667.00;;;25.80
15680;BMP180;15488;48.114;11.532;2023-09-08T00:36:59;95666.00;;;25.70
15680;BMP180;15488;48.114;11.532;2023-09-08T00:39:34;95665.00;;;25.70
15680;BMP180;15488;48.114;11.532;2023-09-08T00:42:01;95663.00;;;25.70
15680;BMP180;15488;48.114;11.532;2023-09-08T00:44:29;95667.00;;;25.70
15680;BMP180;15488;48.114;11.532;2023-09-08T00:46:58;95667.00;;;25.60
15680;BMP180;15488;48.114;11.532;2023-09-08T00:49:25;95663.00;;;25.60
15680;BMP180;15488;48.114;11.532;2023-09-08T00:51:54;95658.00;;;25.60
15680;BMP180;15488;48.114;11.532;2023-09-08T00:54:22;95663.00;;;25.60
15680;BMP180;15488;48.114;11.532;2023-09-08T00:59:19;95663.00;;;25.50
15680;BMP180;15488;48.114;11.532;2023-09-08T01:01:46;95665.00;;;25.50
15680;BMP180;15488;48.114;11.532;2023-09-08T01:04:15;95661.00;;;25.50
15680;BMP180;15488;48.114;11.532;2023-09-08T01:06:43;95663.00;;;25.50
15680;BMP180;15488;48.114;11.532;2023-09-08T01:09:12;95664.00;;;25.50
15680;BMP180;15488;48.114;11.532;2023-09-08T01:11:40;95659.00;;;25.40
15680;BMP180;15488;48.114;11.532;2023-09-08T01:14:09;95664.00;;;25.40
15680;BMP180;15488;48.114;11.532;2023-09-08T01:16:38;95665.00;;;25.40
15680;BMP180;15488;48.114;11.532;2023-09-08T01:19:09;95664.00;;;25.40
15680;BMP180;15488;48.114;11.532;2023-09-08T01:22:14;95664.00;;;25.40
15680;BMP180;15488;48.114;11.532;2023-09-08T01:25:09;95664.00;;;25.40
15680;BMP180;15488;48.114;11.532;2023-09-08T01:27:43;95664.00;;;25.30
15680;BMP180;15488;48.114;11.532;2023-09-08T01:30:13;95663.00;;;25.30
15680;BMP180;15488;48.114;11.532;2023-09-08T01:32:42;95663.00;;;25.30
15680;BMP180;15488;48.114;11.532;2023-09-08T01:35:10;95655.00;;;25.20
15680;BMP180;15488;48.114;11.532;2023-09-08T01:37:40;95652.00;;;25.20
15680;BMP180;15488;48.114;11.532;2023-09-08T01:40:11;95654.00;;;25.20
15680;BMP180;15488;48.114;11.532;2023-09-08T01:42:39;95655.00;;;25.20
15680;BMP180;15488;48.114;11.532;2023-09-08T01:45:07;95652.00;;;25.20
15680;BMP180;15488;48.114;11.532;2023-09-08T01:47:35;95657.00;;;25.20
15680;BMP180;15488;48.114;11.532;2023-09-08T01:50:03;95662.00;;;25.20
15680;BMP180;15488;48.114;11.532;2023-09-08T01:52:31;95649.00;;;25.10
15680;BMP180;15488;48.114;11.532;2023-09-08T01:54:58;95651.00;;;25.10
15680;BMP180;15488;48.114;11.532;2023-09-08T01:57:27;95654.00;;;25.10
15680;BMP180;15488;48.114;11.532;2023-09-08T01:59:54;95650.00;;;25.10
15680;BMP180;15488;48.114;11.532;2023-09-08T02:02:22;95649.00;;;25.10
15680;BMP180;15488;48.114;11.532;2023-09-08T02:04:49;95642.00;;;25.10
15680;BMP180;15488;48.114;11.532;2023-09-08T02:07:17;95645.00;;;25.00
15680;BMP180;15488;48.114;11.532;2023-09-08T02:09:44;95644.00;;;25.00
15680;BMP180;15488;48.114;11.532;2023-09-08T02:12:12;95598.00;;;25.00
15680;BMP180;15488;48.114;11.532;2023-09-08T02:14:41;95642.00;;;25.00
15680;BMP180;15488;48.114;11.532;2023-09-08T02:17:08;95634.00;;;25.00
15680;BMP180;15488;48.114;11.532;2023-09-08T02:19:35;95636.00;;;25.00
15680;BMP180;15488;48.114;11.532;2023-09-08T02:22:03;95641.00;;;24.90
15680;BMP180;15488;48.114;11.532;2023-09-08T02:24:30;95638.00;;;24.90
15680;BMP180;15488;48.114;11.532;2023-09-08T02:26:58;95647.00;;;24.90
15680;BMP180;15488;48.114;11.532;2023-09-08T02:29:25;95644.00;;;24.90
15680;BMP180;15488;48.114;11.532;2023-09-08T02:31:54;95649.00;;;24.90
15680;BMP180;15488;48.114;11.532;2023-09-08T02:34:22;95651.00;;;24.90
15680;BMP180;15488;48.114;11.532;2023-09-08T02:36:49;95649.00;;;24.80
15680;BMP180;15488;48.114;11.532;2023-09-08T02:39:17;95648.00;;;24.80
15680;BMP180;15488;48.114;11.532;2023-09-08T02:41:44;95650.00;;;24.80
15680;BMP180;15488;48.114;11.532;2023-09-08T02:44:12;95599.00;;;24.80
15680;BMP180;15488;48.114;11.532;2023-09-08T02:46:39;95642.00;;;24.80
15680;BMP180;15488;48.114;11.532;2023-09-08T02:49:08;95642.00;;;24.70
15680;BMP180;15488;48.114;11.532;2023-09-08T02:51:36;95636.00;;;24.70
15680;BMP180;15488;48.114;11.532;2023-09-08T02:54:03;95647.00;;;24.70
15680;BMP180;15488;48.114;11.532;2023-09-08T02:56:31;95637.00;;;24.70
15680;BMP180;15488;48.114;11.532;2023-09-08T02:58:58;95647.00;;;24.70
15680;BMP180;15488;48.114;11.532;2023-09-08T03:01:26;95646.00;;;24.70
15680;BMP180;15488;48.114;11.532;2023-09-08T03:03:53;95639.00;;;24.70
15680;BMP180;15488;48.114;11.532;2023-09-08T03:06:22;95640.00;;;24.60
15680;BMP180;15488;48.114;11.532;2023-09-08T03:08:50;95643.00;;;24.60
15680;BMP180;15488;48.114;11.532;2023-09-08T03:11:17;95640.00;;;24.60
15680;BMP180;15488;48.114;11.532;2023-09-08T03:13:45;95642.00;;;24.60
15680;BMP180;15488;48.114;11.532;2023-09-08T03:16:12;95638.00;;;24.60
15680;BMP180;15488;48.114;11.532;2023-09-08T03:18:40;95631.00;;;24.60
15680;BMP180;15488;48.114;11.532;2023-09-08T03:21:07;95640.00;;;24.60
15680;BMP180;15488;48.114;11.532;2023-09-08T03:23:40;95642.00;;;24.50
15680;BMP180;15488;48.114;11.532;2023-09-08T03:26:08;95645.00;;;24.50
15680;BMP180;15488;48.114;11.532;2023-09-08T03:28:36;95637.00;;;24.50
15680;BMP180;15488;48.114;11.532;2023-09-08T03:31:05;95638.00;;;24.50
15680;BMP180;15488;48.114;11.532;2023-09-08T03:33:33;95644.00;;;24.50
15680;BMP180;15488;48.114;11.532;2023-09-08T03:36:00;95642.00;;;24.50
15680;BMP180;15488;48.114;11.532;2023-09-08T03:38:28;95646.00;;;24.50
15680;BMP180;15488;48.114;11.532;2023-09-08T03:40:57;95647.00;;;24.40
15680;BMP180;15488;48.114;11.532;2023-09-08T03:43:24;95641.00;;;24.40
15680;BMP180;15488;48.114;11.532;2023-09-08T03:45:52;95644.00;;;24.40
15680;BMP180;15488;48.114;11.532;2023-09-08T03:48:19;95635.00;;;24.40
15680;BMP180;15488;48.114;11.532;2023-09-08T03:50:47;95639.00;;;24.40
15680;BMP180;15488;48.114;11.532;2023-09-08T03:53:14;95635.00;;;24.40
15680;BMP180;15488;48.114;11.532;2023-09-08T03:55:41;95640.00;;;24.30
15680;BMP180;15488;48.114;11.532;2023-09-08T03:58:10;95637.00;;;24.30
15680;BMP180;15488;48.114;11.532;2023-09-08T04:00:38;95644.00;;;24.30
15680;BMP180;15488;48.114;11.532;2023-09-08T04:03:05;95640.00;;;24.30
15680;BMP180;15488;48.114;11.532;2023-09-08T04:05:33;95642.00;;;24.30
15680;BMP180;15488;48.114;11.532;2023-09-08T04:08:00;95643.00;;;24.30
15680;BMP180;15488;48.114;11.532;2023-09-08T04:10:28;95637.00;;;24.30
15680;BMP180;15488;48.114;11.532;2023-09-08T04:12:55;95650.00;;;24.30
15680;BMP180;15488;48.114;11.532;2023-09-08T04:15:24;95646.00;;;24.30
15680;BMP180;15488;48.114;11.532;2023-09-08T04:17:52;95646.00;;;24.30
15680;BMP180;15488;48.114;11.532;2023-09-08T04:20:19;95637.00;;;24.30
15680;BMP180;15488;48.114;11.532;2023-09-08T04:22:47;95641.00;;;24.20
15680;BMP180;15488;48.114;11.532;2023-09-08T04:25:15;95636.00;;;24.20
15680;BMP180;15488;48.114;11.532;2023-09-08T04:27:42;95637.00;;;24.20
15680;BMP180;15488;48.114;11.532;2023-09-08T04:30:11;95643.00;;;24.20
15680;BMP180;15488;48.114;11.532;2023-09-08T04:32:40;95643.00;;;24.20
15680;BMP180;15488;48.114;11.532;2023-09-08T04:35:09;95642.00;;;24.20
15680;BMP180;15488;48.114;11.532;2023-09-08T04:37:36;95645.00;;;24.20
15680;BMP180;15488;48.114;11.532;2023-09-08T04:40:06;95645.00;;;24.20
15680;BMP180;15488;48.114;11.532;2023-09-08T04:42:34;95649.00;;;24.20
15680;BMP180;15488;48.114;11.532;2023-09-08T04:45:02;95648.00;;;24.20
15680;BMP180;15488;48.114;11.532;2023-09-08T04:47:30;95655.00;;;24.20
15680;BMP180;15488;48.114;11.532;2023-09-08T04:49:58;95649.00;;;24.00
15680;BMP180;15488;48.114;11.532;2023-09-08T04:52:26;95656.00;;;24.20
15680;BMP180;15488;48.114;11.532;2023-09-08T04:54:53;95656.00;;;24.20
15680;BMP180;15488;48.114;11.532;2023-09-08T04:57:20;95651.00;;;24.20
15680;BMP180;15488;48.114;11.532;2023-09-08T04:59:48;95651.00;;;24.10
15680;BMP180;15488;48.114;11.532;2023-09-08T05:02:15;95651.00;;;24.10
15680;BMP180;15488;48.114;11.532;2023-09-08T05:04:44;95653.00;;;24.10
15680;BMP180;15488;48.114;11.532;2023-09-08T05:07:13;95647.00;;;24.10
15680;BMP180;15488;48.114;11.532;2023-09-08T05:09:40;95655.00;;;24.10
15680;BMP180;15488;48.114;11.532;2023-09-08T05:12:08;95657.00;;;24.10
15680;BMP180;15488;48.114;11.532;2023-09-08T05:14:35;95656.00;;;24.10
15680;BMP180;15488;48.114;11.532;2023-09-08T05:17:03;95656.00;;;24.10
15680;BMP180;15488;48.114;11.532;2023-09-08T05:19:31;95660.00;;;24.10
15680;BMP180;15488;48.114;11.532;2023-09-08T05:21:58;95665.00;;;24.10
15680;BMP180;15488;48.114;11.532;2023-09-08T05:24:27;95663.00;;;24.10
15680;BMP180;15488;48.114;11.532;2023-09-08T05:26:54;95660.00;;;24.10
15680;BMP180;15488;48.114;11.532;2023-09-08T05:29:22;95662.00;;;24.10
15680;BMP180;15488;48.114;11.532;2023-09-08T05:31:50;95669.00;;;24.10
15680;BMP180;15488;48.114;11.532;2023-09-08T05:34:17;95666.00;;;24.10
15680;BMP180;15488;48.114;11.532;2023-09-08T05:36:45;95677.00;;;24.10
15680;BMP180;15488;48.114;11.532;2023-09-08T05:39:13;95668.00;;;24.10
15680;BMP180;15488;48.114;11.532;2023-09-08T05:41:42;95673.00;;;24.10
15680;BMP180;15488;48.114;11.532;2023-09-08T05:44:10;95682.00;;;24.10
15680;BMP180;15488;48.114;11.532;2023-09-08T05:46:37;95677.00;;;24.20
15680;BMP180;15488;48.114;11.532;2023-09-08T05:49:05;95684.00;;;24.20
15680;BMP180;15488;48.114;11.532;2023-09-08T05:51:32;95678.00;;;24.20
15680;BMP180;15488;48.114;11.532;2023-09-08T05:54:00;95676.00;;;24.20
15680;BMP180;15488;48.114;11.532;2023-09-08T05:56:30;95681.00;;;24.20
15680;BMP180;15488;48.114;11.532;2023-09-08T05:58:59;95680.00;;;24.20
15680;BMP180;15488;48.114;11.532;2023-09-08T06:01:27;95689.00;;;24.30
15680;BMP180;15488;48.114;11.532;2023-09-08T06:03:54;95687.00;;;24.30
15680;BMP180;15488;48.114;11.532;2023-09-08T06:06:22;95685.00;;;24.30
15680;BMP180;15488;48.114;11.532;2023-09-08T06:08:51;95693.00;;;24.40
15680;BMP180;15488;48.114;11.532;2023-09-08T06:11:18;95695.00;;;24.40
15680;BMP180;15488;48.114;11.532;2023-09-08T06:13:46;95694.00;;;24.40
15680;BMP180;15488;48.114;11.532;2023-09-08T06:16:15;95694.00;;;24.40
15680;BMP180;15488;48.114;11.532;2023-09-08T06:18:43;95693.00;;;24.50
15680;BMP180;15488;48.114;11.532;2023-09-08T06:21:10;95692.00;;;24.50
15680;BMP180;15488;48.114;11.532;2023-09-08T06:23:38;95693.00;;;24.50
15680;BMP180;15488;48.114;11.532;2023-09-08T06:26:05;95687.00;;;24.50
15680;BMP180;15488;48.114;11.532;2023-09-08T06:28:33;95693.00;;;24.60
15680;BMP180;15488;48.114;11.532;2023-09-08T06:31:01;95691.00;;;24.60
15680;BMP180;15488;48.114;11.532;2023-09-08T06:33:30;95691.00;;;24.60
15680;BMP180;15488;48.114;11.532;2023-09-08T06:35:57;95692.00;;;24.70
15680;BMP180;15488;48.114;11.532;2023-09-08T06:38:25;95692.00;;;24.70
15680;BMP180;15488;48.114;11.532;2023-09-08T06:40:52;95696.00;;;24.80
15680;BMP180;15488;48.114;11.532;2023-09-08T06:43:20;95701.00;;;24.80
15680;BMP180;15488;48.114;11.532;2023-09-08T06:45:48;95695.00;;;24.80
15680;BMP180;15488;48.114;11.532;2023-09-08T06:48:16;95698.00;;;24.90
15680;BMP180;15488;48.114;11.532;2023-09-08T06:50:44;95698.00;;;24.90
15680;BMP180;15488;48.114;11.532;2023-09-08T06:53:12;95700.00;;;24.90
15680;BMP180;15488;48.114;11.532;2023-09-08T06:55:39;95703.00;;;25.00
15680;BMP180;15488;48.114;11.532;2023-09-08T06:58:07;95703.00;;;25.00
15680;BMP180;15488;48.114;11.532;2023-09-08T07:00:35;95703.00;;;25.00
15680;BMP180;15488;48.114;11.532;2023-09-08T07:03:03;95701.00;;;25.00
15680;BMP180;15488;48.114;11.532;2023-09-08T07:05:31;95702.00;;;25.10
15680;BMP180;15488;48.114;11.532;2023-09-08T07:08:01;95704.00;;;25.10
15680;BMP180;15488;48.114;11.532;2023-09-08T07:10:29;95703.00;;;25.10
15680;BMP180;15488;48.114;11.532;2023-09-08T07:12:57;95701.00;;;25.20
15680;BMP180;15488;48.114;11.532;2023-09-08T07:15:25;95698.00;;;25.20
15680;BMP180;15488;48.114;11.532;2023-09-08T07:17:56;95704.00;;;25.20
15680;BMP180;15488;48.114;11.532;2023-09-08T07:20:24;95701.00;;;25.30
15680;BMP180;15488;48.114;11.532;2023-09-08T07:22:52;95698.00;;;25.30
15680;BMP180;15488;48.114;11.532;2023-09-08T07:25:21;95696.00;;;25.30
15680;BMP180;15488;48.114;11.532;2023-09-08T07:27:49;95695.00;;;25.40
15680;BMP180;15488;48.114;11.532;2023-09-08T07:30:19;95705.00;;;25.40
15680;BMP180;15488;48.114;11.532;2023-09-08T07:32:47;95692.00;;;25.50
15680;BMP180;15488;48.114;11.532;2023-09-08T07:35:15;95692.00;;;25.50
15680;BMP180;15488;48.114;11.532;2023-09-08T07:37:45;95693.00;;;25.60
15680;BMP180;15488;48.114;11.532;2023-09-08T07:40:14;95695.00;;;25.60
15680;BMP180;15488;48.114;11.532;2023-09-08T07:42:43;95692.00;;;25.60
15680;BMP180;15488;48.114;11.532;2023-09-08T07:45:11;95698.00;;;25.70
15680;BMP180;15488;48.114;11.532;2023-09-08T07:47:41;95695.00;;;25.70
15680;BMP180;15488;48.114;11.532;2023-09-08T07:50:21;95702.00;;;25.80
15680;BMP180;15488;48.114;11.532;2023-09-08T07:52:51;95702.00;;;25.80
15680;BMP180;15488;48.114;11.532;2023-09-08T07:55:19;95705.00;;;25.90
15680;BMP180;15488;48.114;11.532;2023-09-08T07:57:51;95698.00;;;25.90
15680;BMP180;15488;48.114;11.532;2023-09-08T08:00:19;95704.00;;;26.00
15680;BMP180;15488;48.114;11.532;2023-09-08T08:02:48;95711.00;;;26.00
15680;BMP180;15488;48.114;11.532;2023-09-08T08:05:16;95705.00;;;26.00
15680;BMP180;15488;48.114;11.532;2023-09-08T08:07:44;95708.00;;;26.10
15680;BMP180;15488;48.114;11.532;2023-09-08T08:10:12;95701.00;;;26.10
15680;BMP180;15488;48.114;11.532;2023-09-08T08:12:41;95701.00;;;26.20
15680;BMP180;15488;48.114;11.532;2023-09-08T08:15:10;95702.00;;;26.20
15680;BMP180;15488;48.114;11.532;2023-09-08T08:17:38;95705.00;;;26.20
15680;BMP180;15488;48.114;11.532;2023-09-08T08:20:07;95708.00;;;26.30
15680;BMP180;15488;48.114;11.532;2023-09-08T08:22:35;95704.00;;;26.40
15680;BMP180;15488;48.114;11.532;2023-09-08T08:25:03;95700.00;;;26.40
15680;BMP180;15488;48.114;11.532;2023-09-08T08:27:31;95704.00;;;26.50
15680;BMP180;15488;48.114;11.532;2023-09-08T08:29:59;95705.00;;;26.50
15680;BMP180;15488;48.114;11.532;2023-09-08T08:32:28;95700.00;;;26.50
15680;BMP180;15488;48.114;11.532;2023-09-08T08:34:56;95703.00;;;26.60
15680;BMP180;15488;48.114;11.532;2023-09-08T08:37:23;95700.00;;;26.60
15680;BMP180;15488;48.114;11.532;2023-09-08T08:39:51;95705.00;;;26.70
15680;BMP180;15488;48.114;11.532;2023-09-08T08:42:18;95704.00;;;26.70
15680;BMP180;15488;48.114;11.532;2023-09-08T08:44:48;95697.00;;;26.70
15680;BMP180;15488;48.114;11.532;2023-09-08T08:47:16;95696.00;;;26.80
15680;BMP180;15488;48.114;11.532;2023-09-08T08:49:46;95696.00;;;26.90
15680;BMP180;15488;48.114;11.532;2023-09-08T08:52:15;95691.00;;;26.90
15680;BMP180;15488;48.114;11.532;2023-09-08T08:54:44;95694.00;;;27.00
15680;BMP180;15488;48.114;11.532;2023-09-08T08:57:13;95696.00;;;27.10
15680;BMP180;15488;48.114;11.532;2023-09-08T08:59:41;95696.00;;;27.10
15680;BMP180;15488;48.114;11.532;2023-09-08T09:02:09;95688.00;;;27.20
15680;BMP180;15488;48.114;11.532;2023-09-08T09:04:38;95691.00;;;27.30
15680;BMP180;15488;48.114;11.532;2023-09-08T09:07:08;95691.00;;;27.30
15680;BMP180;15488;48.114;11.532;2023-09-08T09:09:36;95696.00;;;27.40
15680;BMP180;15488;48.114;11.532;2023-09-08T09:12:06;95689.00;;;27.50
15680;BMP180;15488;48.114;11.532;2023-09-08T09:14:34;95683.00;;;27.60
15680;BMP180;15488;48.114;11.532;2023-09-08T09:17:03;95685.00;;;27.60
15680;BMP180;15488;48.114;11.532;2023-09-08T09:19:31;95692.00;;;27.70
15680;BMP180;15488;48.114;11.532;2023-09-08T09:22:01;95684.00;;;27.80
15680;BMP180;15488;48.114;11.532;2023-09-08T09:24:32;95685.00;;;27.90
15680;BMP180;15488;48.114;11.532;2023-09-08T09:27:00;95686.00;;;27.90
15680;BMP180;15488;48.114;11.532;2023-09-08T09:29:28;95679.00;;;28.00
15680;BMP180;15488;48.114;11.532;2023-09-08T09:31:57;95677.00;;;28.10
15680;BMP180;15488;48.114;11.532;2023-09-08T09:34:25;95678.00;;;28.20
15680;BMP180;15488;48.114;11.532;2023-09-08T09:36:53;95681.00;;;28.20
15680;BMP180;15488;48.114;11.532;2023-09-08T09:39:21;95678.00;;;28.30
15680;BMP180;15488;48.114;11.532;2023-09-08T09:41:54;95677.00;;;28.40
15680;BMP180;15488;48.114;11.532;2023-09-08T09:44:22;95672.00;;;28.50
15680;BMP180;15488;48.114;11.532;2023-09-08T09:46:52;95674.00;;;28.50
15680;BMP180;15488;48.114;11.532;2023-09-08T09:49:19;95555.00;;;28.60
15680;BMP180;15488;48.114;11.532;2023-09-08T09:51:49;95664.00;;;28.70
15680;BMP180;15488;48.114;11.532;2023-09-08T09:54:18;95672.00;;;28.70
15680;BMP180;15488;48.114;11.532;2023-09-08T09:56:46;95673.00;;;28.80
15680;BMP180;15488;48.114;11.532;2023-09-08T09:59:15;95664.00;;;28.80
15680;BMP180;15488;48.114;11.532;2023-09-08T10:01:43;95668.00;;;28.90
15680;BMP180;15488;48.114;11.532;2023-09-08T10:04:10;95665.00;;;29.00
15680;BMP180;15488;48.114;11.532;2023-09-08T10:06:40;95666.00;;;29.00
15680;BMP180;15488;48.114;11.532;2023-09-08T10:09:07;95660.00;;;29.10
15680;BMP180;15488;48.114;11.532;2023-09-08T10:11:42;95659.00;;;29.20
15680;BMP180;15488;48.114;11.532;2023-09-08T10:14:12;95655.00;;;29.20
15680;BMP180;15488;48.114;11.532;2023-09-08T10:16:42;95655.00;;;29.30
15680;BMP180;15488;48.114;11.532;2023-09-08T10:19:11;95651.00;;;29.40
15680;BMP180;15488;48.114;11.532;2023-09-08T10:21:41;95654.00;;;29.40
15680;BMP180;15488;48.114;11.532;2023-09-08T10:24:15;95652.00;;;29.50
15680;BMP180;15488;48.114;11.532;2023-09-08T10:26:47;95652.00;;;29.60
15680;BMP180;15488;48.114;11.532;2023-09-08T10:29:19;95653.00;;;29.70
15680;BMP180;15488;48.114;11.532;2023-09-08T10:31:48;95655.00;;;29.80
15680;BMP180;15488;48.114;11.532;2023-09-08T10:34:16;95650.00;;;29.80
15680;BMP180;15488;48.114;11.532;2023-09-08T10:36:44;95653.00;;;29.90
15680;BMP180;15488;48.114;11.532;2023-09-08T10:39:31;95653.00;;;30.00
15680;BMP180;15488;48.114;11.532;2023-09-08T10:42:21;95645.00;;;30.10
15680;BMP180;15488;48.114;11.532;2023-09-08T10:45:01;95646.00;;;30.10
15680;BMP180;15488;48.114;11.532;2023-09-08T10:47:56;95651.00;;;30.20
15680;BMP180;15488;48.114;11.532;2023-09-08T10:50:31;95648.00;;;30.20
15680;BMP180;15488;48.114;11.532;2023-09-08T10:53:12;95650.00;;;30.30
15680;BMP180;15488;48.114;11.532;2023-09-08T10:55:41;95647.00;;;30.30
15680;BMP180;15488;48.114;11.532;2023-09-08T10:58:10;95650.00;;;30.40
15680;BMP180;15488;48.114;11.532;2023-09-08T11:00:45;95645.00;;;30.50
15680;BMP180;15488;48.114;11.532;2023-09-08T11:03:26;95645.00;;;30.50
15680;BMP180;15488;48.114;11.532;2023-09-08T11:05:54;95643.00;;;30.60
15680;BMP180;15488;48.114;11.532;2023-09-08T11:08:23;95648.00;;;30.60
15680;BMP180;15488;48.114;11.532;2023-09-08T11:10:50;95648.00;;;30.70
15680;BMP180;15488;48.114;11.532;2023-09-08T11:13:18;95646.00;;;30.70
15680;BMP180;15488;48.114;11.532;2023-09-08T11:15:45;95646.00;;;30.80
15680;BMP180;15488;48.114;11.532;2023-09-08T11:18:15;95651.00;;;30.90
15680;BMP180;15488;48.114;11.532;2023-09-08T11:20:43;95647.00;;;30.90
15680;BMP180;15488;48.114;11.532;2023-09-08T11:23:11;95646.00;;;31.00
15680;BMP180;15488;48.114;11.532;2023-09-08T11:25:38;95646.00;;;31.10
15680;BMP180;15488;48.114;11.532;2023-09-08T11:28:06;95649.00;;;31.20
15680;BMP180;15488;48.114;11.532;2023-09-08T11:30:36;95647.00;;;31.30
15680;BMP180;15488;48.114;11.532;2023-09-08T11:33:03;95650.00;;;31.40
15680;BMP180;15488;48.114;11.532;2023-09-08T11:35:32;95652.00;;;31.40
15680;BMP180;15488;48.114;11.532;2023-09-08T11:38:00;95644.00;;;31.50
15680;BMP180;15488;48.114;11.532;2023-09-08T11:40:31;95649.00;;;31.60
15680;BMP180;15488;48.114;11.532;2023-09-08T11:42:58;95641.00;;;31.70
15680;BMP180;15488;48.114;11.532;2023-09-08T11:45:26;95647.00;;;31.80
15680;BMP180;15488;48.114;11.532;2023-09-08T11:47:54;95643.00;;;31.90
15680;BMP180;15488;48.114;11.532;2023-09-08T11:50:22;95649.00;;;32.00
15680;BMP180;15488;48.114;11.532;2023-09-08T11:52:53;95641.00;;;32.10
15680;BMP180;15488;48.114;11.532;2023-09-08T11:55:21;95640.00;;;32.20
15680;BMP180;15488;48.114;11.532;2023-09-08T11:57:52;95639.00;;;32.30
15680;BMP180;15488;48.114;11.532;2023-09-08T12:00:21;95640.00;;;32.40
15680;BMP180;15488;48.114;11.532;2023-09-08T12:02:49;95640.00;;;32.50
15680;BMP180;15488;48.114;11.532;2023-09-08T12:05:24;95636.00;;;32.60
15680;BMP180;15488;48.114;11.532;2023-09-08T12:07:55;95639.00;;;32.70
15680;BMP180;15488;48.114;11.532;2023-09-08T12:10:23;95635.00;;;32.80
15680;BMP180;15488;48.114;11.532;2023-09-08T12:12:52;95634.00;;;32.90
15680;BMP180;15488;48.114;11.532;2023-09-08T12:15:30;95634.00;;;33.10
15680;BMP180;15488;48.114;11.532;2023-09-08T12:17:59;95637.00;;;33.20
15680;BMP180;15488;48.114;11.532;2023-09-08T12:20:27;95629.00;;;33.30
15680;BMP180;15488;48.114;11.532;2023-09-08T12:22:58;95629.00;;;33.40
15680;BMP180;15488;48.114;11.532;2023-09-08T12:25:26;95636.00;;;33.60
15680;BMP180;15488;48.114;11.532;2023-09-08T12:27:54;95636.00;;;33.70
15680;BMP180;15488;48.114;11.532;2023-09-08T12:30:23;95632.00;;;33.80
15680;BMP180;15488;48.114;11.532;2023-09-08T12:32:57;95637.00;;;33.90
15680;BMP180;15488;48.114;11.532;2023-09-08T12:35:26;95631.00;;;34.00
15680;BMP180;15488;48.114;11.532;2023-09-08T12:37:58;95633.00;;;34.20
15680;BMP180;15488;48.114;11.532;2023-09-08T12:40:27;95634.00;;;34.30
15680;BMP180;15488;48.114;11.532;2023-09-08T12:42:54;95630.00;;;34.50
15680;BMP180;15488;48.114;11.532;2023-09-08T12:45:23;95626.00;;;34.70
15680;BMP180;15488;48.114;11.532;2023-09-08T12:47:51;95628.00;;;34.80
15680;BMP180;15488;48.114;11.532;2023-09-08T12:50:18;95624.00;;;35.00
15680;BMP180;15488;48.114;11.532;2023-09-08T12:52:46;95619.00;;;35.20
15680;BMP180;15488;48.114;11.532;2023-09-08T12:55:15;95619.00;;;35.40
15680;BMP180;15488;48.114;11.532;2023-09-08T12:57:43;95626.00;;;35.70
15680;BMP180;15488;48.114;11.532;2023-09-08T13:00:11;95622.00;;;35.90
15680;BMP180;15488;48.114;11.532;2023-09-08T13:02:39;95624.00;;;36.20
15680;BMP180;15488;48.114;11.532;2023-09-08T13:05:08;95622.00;;;36.50
15680;BMP180;15488;48.114;11.532;2023-09-08T13:07:35;95632.00;;;36.90
15680;BMP180;15488;48.114;11.532;2023-09-08T13:10:03;95625.00;;;37.40
15680;BMP180;15488;48.114;11.532;2023-09-08T13:12:32;95619.00;;;37.80
15680;BMP180;15488;48.114;11.532;2023-09-08T13:14:59;95622.00;;;38.30
15680;BMP180;15488;48.114;11.532;2023-09-08T13:17:27;95618.00;;;38.90
15680;BMP180;15488;48.114;11.532;2023-09-08T13:19:54;95621.00;;;39.40
15680;BMP180;15488;48.114;11.532;2023-09-08T13:22:22;95616.00;;;40.00
15680;BMP180;15488;48.114;11.532;2023-09-08T13:24:50;95614.00;;;40.60
15680;BMP180;15488;48.114;11.532;2023-09-08T13:27:17;95620.00;;;41.20
15680;BMP180;15488;48.114;11.532;2023-09-08T13:29:46;95614.00;;;41.80
15680;BMP180;15488;48.114;11.532;2023-09-08T13:32:14;95609.00;;;42.40
15680;BMP180;15488;48.114;11.532;2023-09-08T13:34:42;95614.00;;;43.00
15680;BMP180;15488;48.114;11.532;2023-09-08T13:37:10;95612.00;;;43.70
15680;BMP180;15488;48.114;11.532;2023-09-08T13:39:38;95602.00;;;44.20
15680;BMP180;15488;48.114;11.532;2023-09-08T13:42:06;95602.00;;;44.80
15680;BMP180;15488;48.114;11.532;2023-09-08T13:44:33;95603.00;;;45.40
15680;BMP180;15488;48.114;11.532;2023-09-08T13:47:02;95602.00;;;45.80
15680;BMP180;15488;48.114;11.532;2023-09-08T13:49:30;95604.00;;;46.30
15680;BMP180;15488;48.114;11.532;2023-09-08T13:51:58;95589.00;;;46.70
15680;BMP180;15488;48.114;11.532;2023-09-08T13:54:26;95595.00;;;47.10
15680;BMP180;15488;48.114;11.532;2023-09-08T13:57:02;95589.00;;;47.50
15680;BMP180;15488;48.114;11.532;2023-09-08T13:59:30;95582.00;;;47.90
15680;BMP180;15488;48.114;11.532;2023-09-08T14:01:58;95594.00;;;48.20
15680;BMP180;15488;48.114;11.532;2023-09-08T14:04:29;95582.00;;;48.50
15680;BMP180;15488;48.114;11.532;2023-09-08T14:06:56;95582.00;;;48.80
15680;BMP180;15488;48.114;11.532;2023-09-08T14:09:23;95587.00;;;49.00